createdAt,value
2022-10-14T00:01:24.557Z,24.27
2022-10-14T00:04:04.932Z,24.80
2022-10-14T00:06:35.935Z,20.65
2022-10-14T00:09:08.769Z,24.77
2022-10-14T00:11:38.648Z,26.08
2022-10-14T00:14:09.840Z,21.75
2022-10-14T00:16:41.034Z,23.05
2022-10-14T00:19:09.473Z,22.45
2022-10-14T00:21:41.507Z,24.83
2022-10-14T00:24:12.111Z,22.00
2022-10-14T00:26:42.057Z,23.73
2022-10-14T00:29:15.903Z,21.17
2022-10-14T00:31:44.100Z,23.13
2022-10-14T00:34:13.238Z,24.55
2022-10-14T00:36:43.375Z,28.23
2022-10-14T00:39:12.271Z,22.58
2022-10-14T00:41:42.017Z,26.23
2022-10-14T00:44:43.421Z,22.83
2022-10-14T00:47:12.134Z,28.88
2022-10-14T00:49:43.373Z,21.70
2022-10-14T00:52:17.731Z,23.15
2022-10-14T00:54:51.360Z,24.73
2022-10-14T00:57:20.754Z,24.90
2022-10-14T00:59:49.626Z,26.65
2022-10-14T01:02:17.856Z,21.47
2022-10-14T01:04:47.160Z,23.50
2022-10-14T01:07:26.598Z,27.02
2022-10-14T01:10:01.772Z,24.75
2022-10-14T01:12:39.921Z,21.13
2022-10-14T01:15:17.896Z,21.63
2022-10-14T01:17:58.085Z,21.52
2022-10-14T01:20:52.527Z,29.08
2022-10-14T01:23:47.399Z,20.40
2022-10-14T01:26:31.064Z,26.10
2022-10-14T01:29:16.314Z,28.55
2022-10-14T01:31:49.984Z,21.40
2022-10-14T01:34:26.534Z,24.83
2022-10-14T01:36:59.997Z,23.05
2022-10-14T01:39:33.183Z,26.38
2022-10-14T01:42:06.800Z,24.92
2022-10-14T01:44:39.187Z,23.17
2022-10-14T01:47:10.761Z,24.13
2022-10-14T01:49:45.062Z,25.40
2022-10-14T01:52:20.167Z,31.75
2022-10-14T01:54:52.453Z,24.90
2022-10-14T01:57:24.644Z,23.48
2022-10-14T01:59:54.283Z,27.67
2022-10-14T02:02:24.454Z,23.23
2022-10-14T02:04:53.522Z,26.13
2022-10-14T02:07:27.324Z,25.75
2022-10-14T02:10:05.103Z,19.60
2022-10-14T02:12:40.599Z,29.63
2022-10-14T02:15:16.960Z,25.25
2022-10-14T02:17:54.337Z,29.25
2022-10-14T02:20:27.161Z,27.35
2022-10-14T02:23:01.266Z,26.08
2022-10-14T02:25:33.640Z,23.38
2022-10-14T02:28:04.669Z,23.77
2022-10-14T02:34:19.538Z,31.27
2022-10-14T02:36:48.976Z,24.75
2022-10-14T02:39:23.705Z,24.98
2022-10-14T02:41:52.181Z,24.08
2022-10-14T02:44:20.964Z,24.58
2022-10-14T02:46:49.982Z,28.57
2022-10-14T02:49:19.984Z,26.98
2022-10-14T02:51:48.734Z,29.25
2022-10-14T02:54:17.019Z,27.67
2022-10-14T02:56:45.237Z,31.77
2022-10-14T02:59:13.716Z,30.27
2022-10-14T03:01:42.015Z,28.20
2022-10-14T03:04:10.233Z,25.83
2022-10-14T03:06:40.089Z,29.13
2022-10-14T03:09:08.232Z,27.77
2022-10-14T03:11:36.638Z,26.17
2022-10-14T03:14:04.829Z,28.45
2022-10-14T03:16:33.368Z,26.13
2022-10-14T03:19:01.568Z,25.63
2022-10-14T03:21:30.033Z,26.03
2022-10-14T03:24:01.637Z,26.30
2022-10-14T03:26:29.915Z,29.70
2022-10-14T03:28:58.620Z,27.98
2022-10-14T03:31:26.990Z,23.90
2022-10-14T03:33:55.532Z,26.73
2022-10-14T03:36:24.136Z,30.27
2022-10-14T03:38:52.334Z,24.33
2022-10-14T03:41:22.020Z,28.65
2022-10-14T03:43:53.413Z,26.17
2022-10-14T03:46:21.654Z,22.02
2022-10-14T03:48:49.808Z,24.40
2022-10-14T03:51:18.248Z,20.20
2022-10-14T03:53:46.551Z,19.13
2022-10-14T03:56:14.825Z,24.90
2022-10-14T03:58:44.651Z,30.03
2022-10-14T04:01:15.300Z,23.83
2022-10-14T04:03:46.593Z,27.52
2022-10-14T04:06:15.434Z,27.77
2022-10-14T04:08:44.115Z,31.15
2022-10-14T04:11:12.695Z,23.70
2022-10-14T04:13:40.946Z,24.92
2022-10-14T04:16:12.164Z,22.05
2022-10-14T04:18:40.919Z,24.60
2022-10-14T04:21:12.340Z,30.17
2022-10-14T04:23:40.761Z,23.48
2022-10-14T04:26:10.776Z,28.13
2022-10-14T04:28:39.282Z,24.77
2022-10-14T04:31:07.645Z,27.10
2022-10-14T04:33:37.536Z,29.48
2022-10-14T04:36:07.670Z,29.55
2022-10-14T04:38:36.063Z,34.28
2022-10-14T04:41:04.557Z,31.23
2022-10-14T04:43:33.014Z,36.28
2022-10-14T04:46:01.431Z,36.35
2022-10-14T04:51:00.216Z,29.50
2022-10-14T04:53:28.521Z,36.95
2022-10-14T04:55:59.112Z,30.67
2022-10-14T04:58:27.339Z,30.60
2022-10-14T05:00:56.229Z,34.33
2022-10-14T05:03:24.428Z,34.07
2022-10-14T05:05:52.995Z,45.05
2022-10-14T05:08:23.066Z,42.25
2022-10-14T05:10:51.270Z,38.53
2022-10-14T05:13:20.031Z,36.55
2022-10-14T05:15:48.781Z,33.28
2022-10-14T05:18:17.201Z,29.30
2022-10-14T05:20:45.857Z,33.90
2022-10-14T05:23:14.337Z,37.58
2022-10-14T05:25:44.813Z,35.33
2022-10-14T05:28:13.039Z,40.85
2022-10-14T05:30:43.441Z,30.90
2022-10-14T05:33:12.198Z,38.55
2022-10-14T05:35:58.097Z,34.17
2022-10-14T05:38:27.447Z,30.23
2022-10-14T05:40:58.674Z,35.90
2022-10-14T05:43:32.001Z,39.90
2022-10-14T05:46:01.016Z,38.58
2022-10-14T05:48:29.476Z,49.33
2022-10-14T05:51:01.567Z,51.40
2022-10-14T05:53:30.721Z,58.92
2022-10-14T05:56:05.699Z,48.47
2022-10-14T05:58:34.587Z,48.80
2022-10-14T06:01:03.010Z,41.35
2022-10-14T06:03:31.398Z,43.70
2022-10-14T06:06:00.151Z,42.08
2022-10-14T06:08:29.867Z,41.50
2022-10-14T06:10:58.132Z,38.80
2022-10-14T06:13:27.983Z,37.90
2022-10-14T06:15:56.263Z,46.75
2022-10-14T06:18:24.541Z,41.90
2022-10-14T06:20:53.976Z,41.87
2022-10-14T06:23:22.276Z,47.15
2022-10-14T06:25:50.938Z,42.90
2022-10-14T06:28:19.937Z,52.60
2022-10-14T06:30:52.123Z,38.42
2022-10-14T06:33:21.156Z,42.83
2022-10-14T06:35:49.799Z,40.70
2022-10-14T06:38:18.045Z,47.72
2022-10-14T06:40:46.624Z,46.43
2022-10-14T06:43:14.864Z,42.15
2022-10-14T06:45:43.179Z,45.97
2022-10-14T06:48:13.168Z,52.38
2022-10-14T06:50:41.854Z,37.22
2022-10-14T06:53:10.133Z,45.78
2022-10-14T06:55:38.738Z,51.93
2022-10-14T06:58:06.914Z,49.08
2022-10-14T07:00:35.166Z,57.25
2022-10-14T07:03:04.025Z,47.47
2022-10-14T07:05:33.939Z,43.50
2022-10-14T07:08:02.156Z,44.08
2022-10-14T07:10:31.980Z,45.17
2022-10-14T07:13:00.299Z,48.38
2022-10-14T07:15:32.367Z,45.90
2022-10-14T07:18:02.380Z,41.53
2022-10-14T07:20:30.610Z,40.08
2022-10-14T07:23:00.232Z,46.58
2022-10-14T07:25:28.633Z,43.15
2022-10-14T07:27:56.867Z,45.17
2022-10-14T07:30:25.068Z,39.53
2022-10-14T07:32:53.787Z,41.92
2022-10-14T07:35:22.100Z,42.53
2022-10-14T07:37:50.598Z,42.17
2022-10-14T07:40:21.194Z,38.72
2022-10-14T07:42:49.565Z,42.55
2022-10-14T07:45:20.855Z,40.17
2022-10-14T07:47:50.892Z,40.38
2022-10-14T07:50:21.697Z,42.63
2022-10-14T07:52:50.368Z,40.58
2022-10-14T07:55:20.384Z,45.47
2022-10-14T07:57:48.557Z,86.82
2022-10-14T08:00:20.273Z,42.50
2022-10-14T08:02:48.735Z,44.80
2022-10-14T08:08:05.924Z,52.22
2022-10-14T08:10:37.328Z,43.13
2022-10-14T08:13:06.478Z,43.38
2022-10-14T08:15:40.493Z,44.20
2022-10-14T08:18:10.905Z,43.05
2022-10-14T08:20:41.034Z,44.47
2022-10-14T08:23:09.722Z,53.23
2022-10-14T08:25:41.358Z,41.70
2022-10-14T08:28:10.312Z,40.42
2022-10-14T08:30:38.838Z,43.97
2022-10-14T08:33:07.297Z,47.03
2022-10-14T08:35:35.790Z,42.58
2022-10-14T08:38:04.304Z,41.10
2022-10-14T08:40:54.883Z,47.03
2022-10-14T08:43:31.673Z,44.28
2022-10-14T08:46:12.646Z,43.53
2022-10-14T08:48:41.456Z,40.00
2022-10-14T08:51:13.141Z,45.78
2022-10-14T08:53:47.138Z,49.00
2022-10-14T08:56:20.275Z,42.85
2022-10-14T08:58:51.010Z,39.88
2022-10-14T09:01:24.842Z,40.53
2022-10-14T09:03:57.810Z,44.72
2022-10-14T09:06:27.763Z,42.03
2022-10-14T09:09:02.034Z,50.17
2022-10-14T09:11:36.736Z,44.13
2022-10-14T09:14:08.486Z,41.30
2022-10-14T09:16:40.048Z,46.55
2022-10-14T09:19:16.453Z,43.42
2022-10-14T09:21:53.111Z,45.38
2022-10-14T09:24:24.598Z,44.00
2022-10-14T09:26:58.051Z,41.60
2022-10-14T09:29:29.023Z,38.60
2022-10-14T09:32:00.284Z,44.50
2022-10-14T09:34:33.836Z,43.90
2022-10-14T09:37:19.544Z,37.20
2022-10-14T09:39:49.071Z,47.72
2022-10-14T09:42:22.504Z,49.78
2022-10-14T09:45:13.006Z,47.25
2022-10-14T09:47:47.101Z,40.08
2022-10-14T09:50:31.608Z,41.63
2022-10-14T09:53:03.780Z,38.97
2022-10-14T09:55:33.251Z,39.60
2022-10-14T09:58:08.972Z,39.72
2022-10-14T10:00:38.913Z,38.75
2022-10-14T10:03:11.517Z,38.10
2022-10-14T10:05:42.091Z,41.58
2022-10-14T10:08:18.674Z,43.67
2022-10-14T10:11:06.525Z,76.68
2022-10-14T10:13:41.473Z,59.88
2022-10-14T10:16:26.774Z,43.83
2022-10-14T10:18:57.424Z,39.92
2022-10-14T10:21:27.826Z,36.95
2022-10-14T10:23:58.963Z,41.17
2022-10-14T10:26:30.728Z,37.97
2022-10-14T10:29:02.721Z,47.97
2022-10-14T10:32:13.168Z,38.63
2022-10-14T10:35:02.828Z,34.75
2022-10-14T10:37:34.286Z,40.67
2022-10-14T10:40:22.450Z,36.03
2022-10-14T10:43:06.618Z,36.13
2022-10-14T10:45:50.680Z,43.40
2022-10-14T10:48:26.194Z,36.78
2022-10-14T10:51:01.847Z,36.53
2022-10-14T10:54:02.920Z,35.50
2022-10-14T10:56:41.254Z,40.35
2022-10-14T10:59:44.072Z,44.37
2022-10-14T11:02:49.855Z,44.78
2022-10-14T11:05:24.503Z,48.97
2022-10-14T11:08:14.527Z,38.55
2022-10-14T11:11:12.703Z,35.00
2022-10-14T11:29:59.070Z,40.42
2022-10-14T11:32:28.988Z,46.70
2022-10-14T11:35:02.013Z,42.40
2022-10-14T11:37:31.117Z,39.67
2022-10-14T11:40:02.192Z,47.53
2022-10-14T11:42:39.533Z,49.38
2022-10-14T11:45:29.041Z,43.30
2022-10-14T11:50:29.693Z,48.65
2022-10-14T11:53:02.417Z,56.58
2022-10-14T11:55:34.356Z,46.83
2022-10-14T11:58:06.431Z,39.10
2022-10-14T12:00:53.282Z,46.20
2022-10-14T12:03:23.286Z,44.45
2022-10-14T12:05:59.424Z,36.72
2022-10-14T12:08:34.699Z,33.03
2022-10-14T12:11:08.626Z,35.15
2022-10-14T12:13:42.004Z,31.27
2022-10-14T12:16:14.190Z,29.23
2022-10-14T12:18:43.971Z,26.70
2022-10-14T12:21:19.078Z,26.42
2022-10-14T12:23:48.334Z,29.80
2022-10-14T12:26:18.263Z,29.48
2022-10-14T12:28:46.751Z,30.63
2022-10-14T12:31:22.399Z,31.75
2022-10-14T12:34:11.522Z,25.75
2022-10-14T12:36:41.839Z,29.17
2022-10-14T12:39:28.295Z,28.35
2022-10-14T12:41:57.054Z,29.33
2022-10-14T12:44:29.625Z,30.30
2022-10-14T12:46:58.101Z,27.17
2022-10-14T12:49:32.371Z,29.23
2022-10-14T12:52:03.232Z,28.30
2022-10-14T12:54:32.154Z,24.50
2022-10-14T12:57:02.151Z,26.83
2022-10-14T12:59:32.173Z,21.55
2022-10-14T13:02:02.111Z,22.38
2022-10-14T13:04:30.492Z,22.63
2022-10-14T13:07:38.913Z,21.42
2022-10-14T13:10:19.968Z,23.35
2022-10-14T13:12:49.453Z,26.63
2022-10-14T13:15:32.622Z,17.30
2022-10-14T13:18:20.907Z,17.67
2022-10-14T13:20:52.765Z,21.35
2022-10-14T13:23:29.249Z,23.10
2022-10-14T13:26:00.472Z,19.05
2022-10-14T13:28:35.454Z,24.60
2022-10-14T13:31:06.395Z,22.52
2022-10-14T13:33:38.480Z,18.95
2022-10-14T13:36:12.049Z,22.08
2022-10-14T13:38:43.455Z,17.58
2022-10-14T13:41:16.132Z,17.05
2022-10-14T13:43:46.654Z,20.95
2022-10-14T13:46:17.131Z,18.05
2022-10-14T13:48:46.776Z,17.17
2022-10-14T13:51:37.238Z,20.27
2022-10-14T13:54:19.811Z,22.80
2022-10-14T13:57:38.295Z,21.00
2022-10-14T14:02:39.576Z,16.67
2022-10-14T14:05:15.161Z,20.58
2022-10-14T14:10:39.241Z,19.77
2022-10-14T14:13:15.581Z,24.85
2022-10-14T14:15:49.971Z,25.80
2022-10-14T14:18:34.067Z,19.30
2022-10-14T14:21:13.590Z,20.92
2022-10-14T14:23:49.753Z,20.13
2022-10-14T14:26:19.768Z,17.33
2022-10-14T14:28:49.663Z,18.17
2022-10-14T14:31:21.551Z,18.50
2022-10-14T14:33:50.097Z,16.15
2022-10-14T14:36:27.860Z,17.30
2022-10-14T14:39:08.544Z,22.83
2022-10-14T14:41:37.082Z,20.30
2022-10-14T14:44:24.667Z,25.20
2022-10-14T14:46:57.937Z,27.00
2022-10-14T14:49:29.013Z,25.52
2022-10-14T14:51:58.144Z,31.85
2022-10-14T14:54:30.136Z,28.00
2022-10-14T14:57:02.987Z,25.17
2022-10-14T14:59:35.848Z,23.75
2022-10-14T15:02:16.700Z,30.48
2022-10-14T15:04:48.630Z,34.75
2022-10-14T15:07:21.492Z,29.92
2022-10-14T15:09:56.488Z,32.85
2022-10-14T15:12:29.220Z,26.15
2022-10-14T15:15:01.332Z,32.33
2022-10-14T15:17:34.735Z,26.45
2022-10-14T15:20:19.277Z,30.45
2022-10-14T15:22:49.382Z,33.95
2022-10-14T15:27:51.397Z,32.08
2022-10-14T15:30:36.579Z,28.70
2022-10-14T15:33:17.319Z,32.03
2022-10-14T15:35:47.107Z,34.17
2022-10-14T15:38:18.437Z,34.83
2022-10-14T15:40:47.832Z,34.20
2022-10-14T15:43:18.539Z,37.22
2022-10-14T15:46:09.235Z,32.35
2022-10-14T15:48:42.820Z,31.05
2022-10-14T15:51:15.814Z,34.30
2022-10-14T15:53:47.163Z,38.92
2022-10-14T15:58:47.907Z,31.20
2022-10-14T16:01:19.370Z,36.83
2022-10-14T16:03:52.513Z,33.42
2022-10-14T16:06:23.425Z,31.88
2022-10-14T16:08:53.136Z,29.20
2022-10-14T16:13:51.220Z,35.63
2022-10-14T16:16:22.969Z,39.15
2022-10-14T16:18:53.408Z,31.88
2022-10-14T16:21:22.354Z,36.03
2022-10-14T16:23:53.115Z,31.80
2022-10-14T16:26:25.273Z,37.70
2022-10-14T16:28:56.217Z,38.53
2022-10-14T16:31:26.661Z,37.80
2022-10-14T16:33:59.200Z,37.05
2022-10-14T16:36:28.356Z,37.25
2022-10-14T16:38:59.359Z,36.53
2022-10-14T16:41:28.004Z,37.67
2022-10-14T16:43:56.281Z,39.37
2022-10-14T16:46:47.310Z,47.75
2022-10-14T16:49:19.473Z,73.35
2022-10-14T16:51:50.227Z,79.45
2022-10-14T16:54:20.124Z,67.32
2022-10-14T16:56:58.419Z,67.22
2022-10-14T16:59:29.582Z,67.88
2022-10-14T17:01:59.018Z,59.30
2022-10-14T17:04:30.666Z,51.55
2022-10-14T17:06:59.593Z,52.75
2022-10-14T17:09:30.355Z,49.15
2022-10-14T17:11:59.609Z,50.58
2022-10-14T17:14:31.935Z,59.65
2022-10-14T17:17:02.303Z,54.83
2022-10-14T17:19:35.905Z,49.80
2022-10-14T17:22:05.011Z,50.40
2022-10-14T17:24:34.448Z,46.20
2022-10-14T17:27:04.642Z,49.03
2022-10-14T17:29:41.465Z,45.67
2022-10-14T17:32:10.354Z,51.97
2022-10-14T17:34:40.091Z,37.53
2022-10-14T17:39:45.041Z,48.45
2022-10-14T17:42:14.724Z,49.08
2022-10-14T17:44:44.352Z,51.95
2022-10-14T17:47:14.424Z,42.90
2022-10-14T17:52:20.394Z,54.65
2022-10-14T17:54:55.388Z,60.92
2022-10-14T17:57:26.854Z,60.05
2022-10-14T17:59:57.775Z,53.20
2022-10-14T18:02:28.658Z,53.75
2022-10-14T18:04:59.402Z,56.25
2022-10-14T18:07:36.197Z,46.05
2022-10-14T18:10:05.283Z,53.90
2022-10-14T18:12:34.751Z,47.70
2022-10-14T18:15:03.893Z,48.45
2022-10-14T18:17:34.833Z,52.05
2022-10-14T18:20:07.322Z,52.70
2022-10-14T18:22:43.424Z,61.90
2022-10-14T18:25:15.979Z,56.80
2022-10-14T18:27:46.004Z,62.92
2022-10-14T18:30:14.759Z,61.25
2022-10-14T18:32:44.064Z,55.75
2022-10-14T18:35:14.531Z,57.15
2022-10-14T18:37:46.941Z,53.28
2022-10-14T18:40:21.005Z,59.67
2022-10-14T18:42:50.681Z,52.92
2022-10-14T18:45:18.978Z,52.80
2022-10-14T18:47:48.979Z,53.35
2022-10-14T18:50:17.957Z,52.08
2022-10-14T18:52:49.690Z,50.85
2022-10-14T18:55:18.791Z,49.42
2022-10-14T18:57:50.183Z,55.33
2022-10-14T19:00:19.939Z,65.57
2022-10-14T19:02:48.625Z,52.30
2022-10-14T19:05:17.838Z,62.33
2022-10-14T19:07:49.477Z,61.33
2022-10-14T19:10:20.580Z,59.47
2022-10-14T19:12:52.940Z,57.45
2022-10-14T19:15:27.012Z,58.45
2022-10-14T19:17:57.052Z,54.58
2022-10-14T19:20:26.719Z,63.10
2022-10-14T19:22:57.051Z,48.90
2022-10-14T19:25:27.525Z,60.72
2022-10-14T19:27:56.305Z,59.38
2022-10-14T19:30:25.116Z,66.77
2022-10-14T19:32:54.154Z,60.72
2022-10-14T19:35:23.976Z,67.43
2022-10-14T19:40:23.730Z,61.08
2022-10-14T19:42:56.174Z,55.85
2022-10-14T19:45:25.761Z,61.47
2022-10-14T19:47:55.742Z,62.70
2022-10-14T19:50:24.395Z,77.93
2022-10-14T19:52:53.570Z,71.40
2022-10-14T19:55:25.076Z,60.38
2022-10-14T19:57:58.482Z,62.50
2022-10-14T20:00:29.028Z,62.53
2022-10-14T20:02:59.643Z,67.82
2022-10-14T20:05:31.747Z,52.15
2022-10-14T20:08:03.386Z,61.17
2022-10-14T20:10:33.138Z,82.20
2022-10-14T20:13:05.844Z,66.60
2022-10-14T20:15:39.657Z,60.85
2022-10-14T20:18:10.309Z,56.63
2022-10-14T20:20:40.877Z,74.45
2022-10-14T20:23:09.149Z,60.35
2022-10-14T20:25:37.422Z,63.47
2022-10-14T20:28:08.670Z,65.28
2022-10-14T20:30:39.856Z,61.42
2022-10-14T20:33:08.294Z,58.40
2022-10-14T20:35:36.480Z,54.58
2022-10-14T20:38:05.264Z,69.03
2022-10-14T20:40:36.163Z,62.92
2022-10-14T20:43:05.047Z,72.53
2022-10-14T20:45:34.647Z,62.47
2022-10-14T20:48:03.086Z,62.45
2022-10-14T20:50:32.026Z,58.80
2022-10-14T20:53:01.510Z,52.85
2022-10-14T20:55:31.128Z,60.90
2022-10-14T20:57:59.686Z,54.58
2022-10-14T21:00:27.695Z,58.58
2022-10-14T21:02:57.601Z,57.03
2022-10-14T21:05:26.652Z,64.50
2022-10-14T21:07:55.954Z,62.35
2022-10-14T21:12:52.568Z,69.47
2022-10-14T21:15:20.854Z,65.72
2022-10-14T21:17:49.836Z,64.55
2022-10-14T21:20:19.906Z,65.20
2022-10-14T21:22:47.943Z,70.43
2022-10-14T21:25:16.484Z,74.32
2022-10-14T21:27:44.777Z,65.40
2022-10-14T21:30:13.474Z,73.40
2022-10-14T21:32:42.155Z,62.35
2022-10-14T21:35:10.579Z,68.23
2022-10-14T21:37:40.664Z,67.10
2022-10-14T21:40:10.065Z,68.88
2022-10-14T21:42:38.997Z,68.30
2022-10-14T21:45:07.918Z,68.43
2022-10-14T21:47:36.539Z,64.72
2022-10-14T21:50:04.695Z,72.07
2022-10-14T21:52:35.434Z,60.22
2022-10-14T21:55:05.608Z,57.90
2022-10-14T21:57:33.944Z,63.78
2022-10-14T22:00:02.839Z,59.67
2022-10-14T22:02:33.381Z,64.43
2022-10-14T22:05:02.353Z,63.83
2022-10-14T22:07:30.770Z,63.58
2022-10-14T22:09:58.924Z,66.75
2022-10-14T22:12:29.973Z,69.07
2022-10-14T22:14:58.275Z,66.22
2022-10-14T22:17:26.567Z,65.13
2022-10-14T22:19:54.741Z,73.63
2022-10-14T22:22:23.089Z,59.92
2022-10-14T22:24:51.125Z,60.40
2022-10-14T22:27:19.270Z,59.15
2022-10-14T22:29:49.311Z,63.72
2022-10-14T22:32:17.316Z,67.00
2022-10-14T22:34:45.284Z,79.35
2022-10-14T22:37:13.506Z,56.95
2022-10-14T22:39:41.582Z,67.57
2022-10-14T22:42:09.727Z,60.47
2022-10-14T22:44:38.428Z,56.47
2022-10-14T22:47:08.537Z,63.83
2022-10-14T22:49:36.642Z,61.65
2022-10-14T22:52:04.946Z,63.30
2022-10-14T22:54:33.179Z,69.82
2022-10-14T22:57:01.600Z,56.83
2022-10-14T22:59:29.902Z,65.68
2022-10-14T23:01:58.033Z,55.53
2022-10-14T23:04:27.594Z,60.10
2022-10-14T23:06:56.199Z,61.28
2022-10-14T23:09:24.488Z,66.20
2022-10-14T23:11:52.615Z,52.60
2022-10-14T23:14:21.064Z,64.40
2022-10-14T23:16:49.188Z,58.20
2022-10-14T23:19:17.451Z,60.25
2022-10-14T23:21:47.222Z,53.38
2022-10-14T23:24:15.351Z,50.35
2022-10-14T23:26:43.542Z,52.40
2022-10-14T23:29:12.928Z,50.85
2022-10-14T23:31:41.824Z,55.17
2022-10-14T23:34:12.071Z,61.13
2022-10-14T23:36:40.502Z,60.50
2022-10-14T23:39:10.593Z,56.35
2022-10-14T23:41:39.036Z,58.28
2022-10-14T23:44:07.326Z,61.67
2022-10-14T23:46:35.400Z,56.35
2022-10-14T23:49:14.302Z,51.03
2022-10-14T23:51:55.585Z,59.15
2022-10-14T23:54:28.367Z,52.13
2022-10-14T23:56:57.293Z,54.05
2022-10-14T23:59:25.759Z,52.83
